Time;durP1;ratioP1;P1;durP2;ratioP2;P2;SDS_P1;SDS_P2;PMS_P1;PMS_P2;Temp;Humidity;BMP_temperature;BMP_pressure;BME280_temperature;BME280_humidity;BME280_pressure;Samples;Min_cycle;Max_cycle;Signal;HPM_P1;HPM_P2
2021/12/16 00:02:04;;;;;;;;;40.67;32.67;;;;;11.06;92.38;103227.63;5058120;28;45833;-75
2021/12/16 00:32:44;;;;;;;;;32.00;26.67;;;;;11.15;92.24;103240.94;4918413;28;45550;-74
2021/12/16 00:34:40;;;;;;;;;35.00;31.33;;;;;11.15;92.23;103230.38;4896306;29;46094;-75
2021/12/16 00:37:05;;;;;;;;;39.67;31.67;;;;;11.05;91.95;103215.31;4899264;29;45379;-75
2021/12/16 00:39:34;;;;;;;;;42.33;33.00;;;;;11.14;92.21;103234.78;4899463;29;45344;-75
2021/12/16 00:42:07;;;;;;;;;38.33;32.00;;;;;11.12;92.34;103236.53;4899634;29;45419;-75
2021/12/16 00:54:38;;;;;;;;;41.33;35.00;;;;;11.15;92.40;103235.66;4917895;28;45838;-75
2021/12/16 00:57:11;;;;;;;;;35.67;28.33;;;;;11.04;92.07;103217.06;4917694;28;45489;-75
2021/12/16 00:59:40;;;;;;;;;40.67;34.00;;;;;11.03;91.85;103222.31;4945805;28;45562;-75
2021/12/16 01:34:58;;;;;;;;;46.33;37.00;;;;;11.08;92.67;103247.88;5035054;28;45433;-73
2021/12/16 01:50:32;;;;;;;;;37.33;31.67;;;;;11.06;92.48;103246.09;5034563;28;45507;-73
2021/12/16 01:56:03;;;;;;;;;35.33;26.67;;;;;11.10;91.88;103247.91;5034956;28;45452;-74
2021/12/16 01:58:31;;;;;;;;;36.00;32.00;;;;;11.11;92.17;103260.22;5034123;28;46801;-74
2021/12/16 02:01:20;;;;;;;;;34.00;31.00;;;;;11.04;91.81;103251.34;5034566;28;45444;-73
2021/12/16 02:03:57;;;;;;;;;35.67;30.00;;;;;10.98;92.87;103246.84;5034825;28;45483;-73
2021/12/16 02:09:18;;;;;;;;;37.00;32.67;;;;;11.10;93.05;103266.38;5056455;28;45430;-73
2021/12/16 02:11:56;;;;;;;;;40.67;31.00;;;;;11.09;92.91;103249.63;5056338;28;45415;-73
2021/12/16 02:33:14;;;;;;;;;39.67;33.67;;;;;11.11;92.94;103276.03;5017216;28;45524;-73
2021/12/16 02:35:44;;;;;;;;;39.00;33.67;;;;;11.07;92.99;103263.69;5017886;28;45520;-73
2021/12/16 02:38:14;;;;;;;;;41.67;32.00;;;;;11.01;93.08;103261.84;5017807;28;45445;-73
2021/12/16 02:40:40;;;;;;;;;35.67;33.33;;;;;10.92;92.84;103253.75;5017544;28;45925;-73
2021/12/16 02:43:28;;;;;;;;;42.67;33.67;;;;;11.00;93.08;103265.31;5017456;28;45431;-73
2021/12/16 02:48:41;;;;;;;;;41.00;34.67;;;;;11.07;93.29;103279.50;5017494;28;45406;-73
2021/12/16 02:51:15;;;;;;;;;39.33;34.00;;;;;11.09;93.08;103278.63;5017327;28;46629;-73
2021/12/16 02:53:47;;;;;;;;;37.67;31.67;;;;;11.07;93.08;103276.88;5017112;28;45478;-72
2021/12/16 02:56:13;;;;;;;;;41.67;36.33;;;;;11.09;93.78;103290.94;5017301;28;45366;-72
2021/12/16 02:58:42;;;;;;;;;40.33;32.00;;;;;10.86;93.42;103246.63;5017298;28;45513;-72
2021/12/16 03:01:28;;;;;;;;;43.33;32.33;;;;;11.10;93.74;103282.19;5017167;28;45447;-72
2021/12/16 03:03:55;;;;;;;;;36.67;31.00;;;;;11.11;92.96;103282.22;5017180;28;45368;-72
2021/12/16 03:06:21;;;;;;;;;36.67;32.67;;;;;11.00;93.20;103262.69;5017758;28;45388;-72
2021/12/16 03:08:48;;;;;;;;;37.33;33.67;;;;;11.03;93.61;103267.13;5019145;28;45444;-72
2021/12/16 03:11:23;;;;;;;;;46.67;35.33;;;;;10.80;93.50;103225.44;5059497;28;45316;-72
2021/12/16 03:21:39;;;;;;;;;37.67;34.00;;;;;10.92;93.90;103256.38;5058829;28;45309;-73
2021/12/16 03:37:29;;;;;;;;;46.00;32.33;;;;;11.11;94.10;103287.47;5036790;28;45598;-72
2021/12/16 03:39:50;;;;;;;;;43.00;32.00;;;;;11.12;94.30;103293.63;5033871;28;45359;-72
2021/12/16 03:42:38;;;;;;;;;44.00;35.33;;;;;11.10;93.85;103301.53;5036078;28;46290;-72
2021/12/16 03:46:25;;;;;;;;;39.67;34.00;;;;;11.02;94.01;103284.69;4977033;28;45539;-72
2021/12/16 03:47:56;;;;;;;;;46.33;35.00;;;;;10.92;94.04;103261.66;4970293;28;45482;-72
2021/12/16 03:50:22;;;;;;;;;40.67;34.00;;;;;11.05;94.18;103289.13;4957818;28;45443;-72
2021/12/16 03:52:49;;;;;;;;;40.00;33.33;;;;;10.88;94.28;103254.59;4968863;28;47645;-72
2021/12/16 03:55:15;;;;;;;;;45.67;34.00;;;;;11.06;94.42;103288.28;4961000;28;45390;-72
2021/12/16 03:57:41;;;;;;;;;45.00;36.33;;;;;11.08;94.53;103300.63;4957262;28;45530;-72
2021/12/16 04:00:28;;;;;;;;;42.33;34.00;;;;;11.13;93.81;103306.84;4957701;28;45577;-72
2021/12/16 04:02:54;;;;;;;;;39.33;34.00;;;;;10.99;94.26;103282.00;4957220;28;45499;-72
2021/12/16 04:05:21;;;;;;;;;46.67;38.33;;;;;11.10;94.98;103301.53;4957559;28;45328;-72
2021/12/16 04:07:48;;;;;;;;;52.33;39.67;;;;;10.92;94.34;103274.84;4957369;28;45448;-72
2021/12/16 04:10:22;;;;;;;;;39.67;34.00;;;;;11.13;94.59;103300.69;4987955;28;45546;-72
2021/12/16 04:12:50;;;;;;;;;42.33;32.67;;;;;11.15;94.40;103302.50;4976472;28;47170;-72
2021/12/16 04:15:16;;;;;;;;;41.00;33.00;;;;;11.16;93.72;103306.00;4976645;28;45510;-72
2021/12/16 04:17:42;;;;;;;;;38.33;32.00;;;;;11.08;94.53;103297.06;4976700;28;45616;-72
2021/12/16 04:20:11;;;;;;;;;39.00;32.00;;;;;11.14;94.00;103307.75;4986864;28;45418;-73
2021/12/16 04:22:43;;;;;;;;;41.33;34.00;;;;;11.06;95.00;103296.19;5039447;28;45491;-73
2021/12/16 04:25:13;;;;;;;;;42.33;32.33;;;;;11.15;94.28;103310.41;5058104;28;45611;-73
2021/12/16 04:27:38;;;;;;;;;41.67;34.67;;;;;11.05;94.25;103290.03;5058107;28;45436;-73
2021/12/16 04:30:07;;;;;;;;;39.33;32.33;;;;;11.13;94.53;103305.97;5058490;28;45511;-73
2021/12/16 04:32:32;;;;;;;;;53.67;38.33;;;;;11.06;94.69;103299.69;5057834;28;47285;-73
2021/12/16 04:34:58;;;;;;;;;39.00;31.33;;;;;11.03;94.25;103294.38;5058201;28;45388;-72
2021/12/16 04:37:24;;;;;;;;;30.00;27.33;;;;;11.12;94.84;103309.44;5058113;28;45400;-72
2021/12/16 04:39:49;;;;;;;;;47.33;34.00;;;;;11.07;94.85;103306.75;5057978;28;45478;-72
2021/12/16 04:42:17;;;;;;;;;47.00;35.67;;;;;10.99;94.54;103289.91;5056881;28;47017;-72
2021/12/16 04:44:43;;;;;;;;;41.33;35.00;;;;;11.08;94.60;103302.34;5057824;28;45324;-73
2021/12/16 04:47:10;;;;;;;;;47.00;32.00;;;;;11.07;94.47;103300.59;5057761;28;45431;-73
2021/12/16 04:49:36;;;;;;;;;41.33;33.67;;;;;11.01;94.31;103300.47;5058130;28;45229;-73
2021/12/16 04:52:07;;;;;;;;;42.00;33.00;;;;;11.05;95.12;103307.56;5057852;28;46404;-73
2021/12/16 04:54:33;;;;;;;;;40.00;31.67;;;;;11.03;94.67;103301.41;5057525;28;45441;-73
2021/12/16 04:57:00;;;;;;;;;48.00;37.00;;;;;11.12;94.86;103306.81;5057588;28;45501;-73
2021/12/16 04:59:27;;;;;;;;;39.00;32.33;;;;;11.12;94.21;103320.00;5058107;28;45405;-73
2021/12/16 05:02:07;;;;;;;;;43.67;34.00;;;;;10.98;94.21;103296.06;5056847;28;47677;-73
2021/12/16 05:04:33;;;;;;;;;46.67;35.33;;;;;11.04;94.92;103314.59;5057590;28;45331;-73
2021/12/16 05:06:58;;;;;;;;;46.67;38.33;;;;;10.78;94.84;103270.22;5057336;28;45523;-73
2021/12/16 05:12:01;;;;;;;;;41.33;34.33;;;;;11.02;94.59;103318.06;5057538;28;46135;-73
2021/12/16 05:14:26;;;;;;;;;40.67;32.00;;;;;10.95;94.49;103311.81;5057361;28;45372;-72
2021/12/16 05:16:52;;;;;;;;;49.33;37.33;;;;;10.86;95.66;103291.44;5057521;28;45198;-72
2021/12/16 05:19:20;;;;;;;;;42.00;34.00;;;;;10.96;95.18;103309.22;5057549;28;45571;-72
2021/12/16 05:21:53;;;;;;;;;36.67;32.00;;;;;10.92;94.67;103304.75;5057075;28;46102;-72
2021/12/16 05:24:27;;;;;;;;;45.67;34.67;;;;;10.96;94.83;103318.84;5057260;28;45340;-72
2021/12/16 05:26:58;;;;;;;;;48.33;36.33;;;;;10.91;95.25;103315.28;5057087;28;45270;-72
2021/12/16 05:29:24;;;;;;;;;46.67;36.67;;;;;10.92;95.70;103323.19;5055440;28;45858;-73
2021/12/16 05:31:51;;;;;;;;;35.67;30.00;;;;;10.90;95.45;103322.25;5056383;28;45595;-72
2021/12/16 05:34:17;;;;;;;;;45.67;36.67;;;;;10.85;95.85;103305.50;5056910;28;45461;-71
2021/12/16 05:36:44;;;;;;;;;30.67;26.67;;;;;10.83;96.31;103301.06;5056952;28;45455;-76
2021/12/16 05:39:10;;;;;;;;;45.67;36.67;;;;;10.85;95.75;103304.59;5057182;28;45414;-74
2021/12/16 05:41:35;;;;;;;;;48.67;38.67;;;;;10.90;95.96;103318.75;5056678;28;46734;-73
2021/12/16 05:44:00;;;;;;;;;51.33;39.33;;;;;10.79;95.92;103292.22;5056432;28;45519;-72
2021/12/16 05:46:27;;;;;;;;;52.00;38.67;;;;;10.90;95.90;103321.38;5056645;28;45368;-72
2021/12/16 05:48:55;;;;;;;;;49.00;39.00;;;;;10.87;95.93;103316.06;5056445;28;45478;-72
2021/12/16 05:51:28;;;;;;;;;41.33;34.00;;;;;10.72;96.50;103279.81;5056828;28;47466;-72
2021/12/16 05:53:55;;;;;;;;;50.67;39.00;;;;;10.86;96.46;103319.56;5059728;28;45379;-72
2021/12/16 05:56:21;;;;;;;;;43.00;35.00;;;;;10.87;96.62;103327.50;5059382;28;45452;-72
2021/12/16 05:58:48;;;;;;;;;39.00;34.67;;;;;10.91;95.52;103334.59;5059684;28;45419;-73
2021/12/16 06:01:19;;;;;;;;;50.67;38.67;;;;;10.89;95.39;103338.06;5059157;28;46819;-73
2021/12/16 06:03:45;;;;;;;;;48.33;39.67;;;;;10.85;95.74;103337.13;5060528;28;45304;-73
2021/12/16 06:06:11;;;;;;;;;51.00;40.33;;;;;10.86;95.76;103332.72;5059799;28;45470;-72
2021/12/16 06:08:38;;;;;;;;;46.00;35.67;;;;;10.85;96.32;103339.75;5057737;28;45518;-72
2021/12/16 06:14:14;;;;;;;;;51.00;40.67;;;;;10.72;96.86;103324.59;5059261;28;45514;-72
2021/12/16 06:27:45;;;;;;;;;46.67;38.33;;;;;10.90;96.48;103358.28;5016040;28;45682;-73
2021/12/16 06:30:14;;;;;;;;;52.00;40.00;;;;;10.90;96.48;103364.44;5017293;28;45323;-73
2021/12/16 06:32:41;;;;;;;;;41.33;34.33;;;;;10.93;95.96;103358.34;5017216;28;45371;-72
2021/12/16 06:35:09;;;;;;;;;38.33;34.33;;;;;10.89;96.46;103351.25;5015598;28;45611;-75
2021/12/16 06:37:35;;;;;;;;;49.67;37.00;;;;;10.90;96.03;103350.38;5017150;28;45595;-72
2021/12/16 06:40:02;;;;;;;;;46.33;36.33;;;;;10.85;96.53;103352.03;5017579;28;45309;-73
2021/12/16 06:42:29;;;;;;;;;48.33;33.67;;;;;10.82;95.98;103350.25;5017066;28;46401;-76
2021/12/16 06:45:05;;;;;;;;;44.33;34.33;;;;;10.88;95.57;103362.66;5017272;28;45524;-76
2021/12/16 06:47:41;;;;;;;;;48.67;37.33;;;;;10.86;96.40;103361.72;5017190;28;45464;-73
2021/12/16 06:50:08;;;;;;;;;52.00;43.00;;;;;10.86;97.20;103372.28;5017330;28;45545;-74
2021/12/16 06:52:40;;;;;;;;;49.67;38.33;;;;;10.88;97.53;103378.47;5021719;28;45463;-74
2021/12/16 07:00:10;;;;;;;;;56.00;44.00;;;;;10.87;96.08;103371.41;5058682;28;45376;-72
2021/12/16 07:05:07;;;;;;;;;54.33;43.00;;;;;10.84;96.95;103366.09;5038611;28;45432;-72
2021/12/16 07:07:33;;;;;;;;;49.00;38.33;;;;;10.78;96.45;103358.97;5039159;28;45349;-72
2021/12/16 07:09:59;;;;;;;;;62.67;49.33;;;;;10.80;96.36;103363.41;5039327;28;45314;-72
2021/12/16 07:12:35;;;;;;;;;48.33;37.33;;;;;10.85;96.38;103370.47;5038982;28;47635;-72
2021/12/16 07:15:06;;;;;;;;;57.33;44.33;;;;;10.67;96.23;103339.41;5039084;28;45456;-72
2021/12/16 07:17:31;;;;;;;;;56.00;43.67;;;;;10.78;97.24;103362.47;5039316;28;45495;-72
2021/12/16 07:19:57;;;;;;;;;45.33;34.00;;;;;10.81;96.72;103366.91;5050994;28;45361;-72
2021/12/16 07:22:22;;;;;;;;;50.00;37.67;;;;;10.87;96.61;103381.97;5059468;28;46172;-72
2021/12/16 07:24:47;;;;;;;;;51.67;37.33;;;;;10.91;96.89;103391.72;5059159;28;45336;-72
2021/12/16 07:27:13;;;;;;;;;62.00;49.33;;;;;10.66;97.19;103350.81;5059315;28;45372;-72
2021/12/16 07:29:39;;;;;;;;;55.00;39.00;;;;;10.91;96.54;103391.72;5059445;28;45515;-72
2021/12/16 07:32:05;;;;;;;;;46.33;37.33;;;;;10.87;96.67;103385.47;5058932;28;46164;-72
2021/12/16 07:34:31;;;;;;;;;64.00;49.33;;;;;10.93;96.84;103400.53;5058871;28;45839;-72
2021/12/16 07:36:59;;;;;;;;;53.00;38.67;;;;;10.89;97.02;103396.97;5058829;28;45301;-73
2021/12/16 07:39:30;;;;;;;;;48.67;39.00;;;;;10.86;96.72;103396.00;5058931;28;45442;-72
2021/12/16 07:41:57;;;;;;;;;51.33;40.00;;;;;10.94;96.78;103402.31;5058963;28;47169;-72
2021/12/16 07:44:24;;;;;;;;;47.00;38.67;;;;;10.95;97.02;103406.72;5058544;28;45495;-73
2021/12/16 07:46:53;;;;;;;;;55.33;45.00;;;;;10.96;97.14;103414.66;5058560;28;45458;-72
2021/12/16 07:49:23;;;;;;;;;46.67;37.67;;;;;10.90;96.56;103403.97;5059149;28;45463;-72
2021/12/16 07:51:50;;;;;;;;;50.33;39.00;;;;;10.87;96.72;103400.41;5058432;28;45406;-72
2021/12/16 07:54:17;;;;;;;;;48.67;37.33;;;;;10.98;96.48;103419.97;5057612;28;45451;-72
2021/12/16 07:56:45;;;;;;;;;51.33;40.67;;;;;11.04;96.53;103432.38;5058727;28;45533;-72
2021/12/16 07:59:11;;;;;;;;;49.67;36.33;;;;;10.92;96.69;103411.91;5058710;28;45317;-72
2021/12/16 08:01:37;;;;;;;;;55.67;42.33;;;;;10.91;96.31;103411.03;5058550;28;46239;-73
2021/12/16 08:04:03;;;;;;;;;52.67;41.33;;;;;10.98;96.62;103431.38;5058617;28;45411;-73
2021/12/16 08:06:30;;;;;;;;;47.67;37.33;;;;;11.05;96.11;103448.22;5057134;28;45315;-73
2021/12/16 08:09:03;;;;;;;;;47.67;37.33;;;;;11.07;96.47;103453.53;5058527;28;45403;-73
2021/12/16 08:11:31;;;;;;;;;51.67;44.00;;;;;11.06;96.22;103441.19;5058368;28;46405;-73
2021/12/16 08:13:57;;;;;;;;;48.33;38.33;;;;;11.07;96.77;103448.25;5058285;28;45472;-73
2021/12/16 08:16:23;;;;;;;;;53.00;38.00;;;;;11.12;96.57;103457.13;5057070;28;45295;-73
2021/12/16 08:18:49;;;;;;;;;49.67;38.67;;;;;11.13;96.43;103459.78;5058647;28;45348;-73
2021/12/16 08:21:15;;;;;;;;;51.67;41.00;;;;;11.14;96.55;103460.69;5057937;28;47545;-73
2021/12/16 08:23:40;;;;;;;;;47.33;37.33;;;;;11.03;96.02;103439.38;5058170;28;45388;-73
2021/12/16 08:26:06;;;;;;;;;68.00;52.75;;;;;11.09;95.79;103444.75;5058187;28;45403;-73
2021/12/16 08:28:31;;;;;;;;;52.33;38.00;;;;;11.00;95.95;103441.97;5058271;28;45503;-73
2021/12/16 08:30:57;;;;;;;;;58.00;41.67;;;;;11.10;96.72;103464.13;5058073;28;45515;-73
2021/12/16 08:33:22;;;;;;;;;48.00;38.33;;;;;11.04;96.48;103438.53;5058108;28;45409;-73
2021/12/16 08:35:51;;;;;;;;;52.33;37.00;;;;;11.21;96.48;103456.41;5058203;28;45412;-73
2021/12/16 08:38:21;;;;;;;;;49.00;36.00;;;;;11.21;95.80;103466.94;5058215;27;45520;-73
2021/12/16 08:40:51;;;;;;;;;43.67;35.67;;;;;11.21;96.42;103459.03;5057957;28;45567;-74
2021/12/16 08:43:17;;;;;;;;;48.33;37.67;;;;;11.18;95.81;103453.72;5057980;28;45344;-73
2021/12/16 08:45:44;;;;;;;;;38.00;33.00;;;;;11.24;96.48;103477.56;5057600;28;45448;-73
2021/12/16 08:48:10;;;;;;;;;49.67;39.33;;;;;11.22;96.55;103477.53;5058229;28;45375;-73
2021/12/16 08:50:39;;;;;;;;;50.33;39.00;;;;;11.24;96.04;103480.19;5057480;28;46638;-73
2021/12/16 08:53:06;;;;;;;;;64.33;47.67;;;;;11.28;95.89;103485.56;5057516;28;45411;-73
2021/12/16 08:55:33;;;;;;;;;50.67;39.00;;;;;11.27;95.82;103483.78;5057746;28;45298;-73
2021/12/16 08:57:59;;;;;;;;;53.67;43.00;;;;;11.25;95.74;103484.63;5057829;28;45419;-73
2021/12/16 09:00:31;;;;;;;;;56.33;44.00;;;;;11.33;95.36;103493.56;5057472;28;46119;-74
2021/12/16 09:02:57;;;;;;;;;42.33;36.00;;;;;11.22;95.82;103459.06;5057545;28;45677;-73
2021/12/16 09:05:24;;;;;;;;;75.00;56.67;;;;;11.26;95.62;103476.72;5057590;28;45242;-74
2021/12/16 09:07:49;;;;;;;;;48.00;41.00;;;;;11.28;95.76;103479.38;5056627;28;45480;-74
2021/12/16 09:10:30;;;;;;;;;48.00;40.00;;;;;11.40;95.50;103498.09;5051851;28;45726;-74
2021/12/16 09:13:03;;;;;;;;;53.33;40.00;;;;;11.40;95.78;103507.75;5052024;28;45506;-74
2021/12/16 09:15:30;;;;;;;;;57.00;43.00;;;;;11.36;95.46;103498.03;5053661;28;45550;-73
2021/12/16 09:17:55;;;;;;;;;51.33;42.33;;;;;11.37;95.48;103489.22;5053750;28;45456;-72
2021/12/16 09:20:21;;;;;;;;;52.00;41.67;;;;;11.35;94.57;103491.84;5052743;28;46141;-72
2021/12/16 09:22:48;;;;;;;;;57.00;45.00;;;;;11.32;95.21;103486.50;5053739;28;45483;-72
2021/12/16 09:25:14;;;;;;;;;62.67;45.00;;;;;11.45;94.54;103501.69;5053595;28;45487;-72
2021/12/16 09:27:41;;;;;;;;;54.67;43.33;;;;;11.46;94.70;103500.84;5053009;28;45454;-72
2021/12/16 09:30:09;;;;;;;;;44.33;35.00;;;;;11.45;94.90;103506.97;5052296;28;46270;-72
2021/12/16 09:32:36;;;;;;;;;51.33;40.67;;;;;11.43;94.57;103505.16;5053255;28;45486;-72
2021/12/16 09:35:03;;;;;;;;;67.33;50.67;;;;;11.45;94.94;103522.78;5053436;28;45463;-72
2021/12/16 09:37:31;;;;;;;;;63.67;50.67;;;;;11.37;94.39;103502.41;5052393;28;45353;-76
2021/12/16 09:39:57;;;;;;;;;53.67;42.33;;;;;11.53;94.55;103538.78;5052416;28;46021;-77
2021/12/16 09:42:26;;;;;;;;;56.00;44.00;;;;;11.48;94.46;103530.75;5051749;28;45387;-78
2021/12/16 09:44:53;;;;;;;;;55.33;43.00;;;;;11.59;94.43;103545.91;5053164;28;46035;-78
2021/12/16 09:47:19;;;;;;;;;58.00;43.00;;;;;11.52;94.81;103528.19;5052437;28;45528;-75
2021/12/16 09:49:45;;;;;;;;;53.67;43.00;;;;;11.60;94.27;103539.78;5049285;28;46653;-74
2021/12/16 09:52:11;;;;;;;;;51.33;41.00;;;;;11.64;94.30;103547.75;5051747;28;45729;-76
2021/12/16 09:54:38;;;;;;;;;53.33;40.67;;;;;11.65;94.08;103554.84;5043555;28;45420;-77
2021/12/16 09:57:03;;;;;;;;;53.67;39.00;;;;;11.61;93.55;103545.06;5033231;28;45538;-77
2021/12/16 09:59:32;;;;;;;;;47.00;38.00;;;;;11.64;93.65;103541.59;5044143;28;45419;-77
2021/12/16 10:02:01;;;;;;;;;53.00;40.00;;;;;11.68;93.69;103544.31;5052923;28;45501;-77
2021/12/16 10:04:31;;;;;;;;;49.00;39.00;;;;;11.47;93.75;103512.28;5052567;28;45681;-77
2021/12/16 10:07:00;;;;;;;;;52.67;39.33;;;;;11.75;93.73;103555.91;5051375;27;45476;-77
2021/12/16 10:09:27;;;;;;;;;51.67;41.33;;;;;11.68;93.54;103538.16;5042209;28;45561;-76
2021/12/16 10:11:56;;;;;;;;;56.67;45.67;;;;;11.78;93.29;103557.72;5049908;28;45534;-78
2021/12/16 10:19:40;;;;;;;;;53.33;42.33;;;;;11.84;92.63;103557.81;5032784;28;45763;-77
2021/12/16 10:22:40;;;;;;;;;51.33;38.67;;;;;11.81;93.21;103555.13;5032386;28;45474;-78
2021/12/16 10:25:29;;;;;;;;;63.67;50.33;;;;;11.89;92.73;103558.75;5042848;28;45775;-78
2021/12/16 10:28:23;;;;;;;;;58.00;45.67;;;;;11.92;92.91;103563.22;5050529;28;46878;-78
2021/12/16 10:31:18;;;;;;;;;53.33;43.00;;;;;11.89;92.39;103556.13;5052429;28;46146;-77
2021/12/16 10:33:54;;;;;;;;;54.67;45.00;;;;;11.96;92.58;103567.72;5029657;28;45964;-78
2021/12/16 10:36:26;;;;;;;;;54.33;44.00;;;;;11.98;91.72;103560.69;5030023;28;45468;-77
2021/12/16 10:38:55;;;;;;;;;54.33;44.00;;;;;11.95;91.68;103544.81;5030497;28;45486;-78
2021/12/16 10:41:29;;;;;;;;;50.00;39.00;;;;;11.97;91.68;103551.91;5033049;28;46422;-76
2021/12/16 10:44:17;;;;;;;;;66.67;51.33;;;;;11.89;91.58;103531.47;5033316;28;45417;-76
2021/12/16 10:47:02;;;;;;;;;63.00;48.67;;;;;11.89;91.77;103524.44;5034183;28;45539;-77
2021/12/16 10:49:44;;;;;;;;;52.00;41.00;;;;;12.10;91.43;103558.28;5034770;28;45398;-76
2021/12/16 10:52:12;;;;;;;;;51.67;40.67;;;;;12.13;91.23;103546.88;5045301;28;45523;-77
2021/12/16 10:54:41;;;;;;;;;54.00;42.33;;;;;12.14;90.48;103548.63;5034825;28;45814;-76
2021/12/16 10:57:21;;;;;;;;;52.33;42.00;;;;;12.16;90.46;103544.28;5034458;28;45492;-76
2021/12/16 11:00:07;;;;;;;;;46.33;40.00;;;;;12.18;90.57;103545.19;5034752;28;45553;-76
2021/12/16 11:02:37;;;;;;;;;54.00;42.00;;;;;12.14;89.64;103527.50;5034074;28;45469;-76
2021/12/16 11:05:05;;;;;;;;;56.00;41.67;;;;;12.23;89.99;103550.53;5033719;28;45520;-75
2021/12/16 11:07:37;;;;;;;;;46.67;39.33;;;;;12.12;90.28;103524.84;5033241;28;45841;-75
2021/12/16 11:10:12;;;;;;;;;52.00;40.67;;;;;12.11;90.38;103527.47;5037601;28;45572;-75
2021/12/16 11:12:38;;;;;;;;;51.33;40.67;;;;;12.28;90.76;103548.84;5055580;28;45551;-78
2021/12/16 11:15:31;;;;;;;;;53.67;41.67;;;;;12.29;90.13;103545.38;5055838;28;45403;-78
2021/12/16 11:18:05;;;;;;;;;54.33;42.33;;;;;12.28;89.62;103541.81;5012820;28;45463;-79
2021/12/16 11:20:54;;;;;;;;;50.67;38.33;;;;;12.19;89.54;103518.78;5005988;28;45540;-78
2021/12/16 11:23:22;;;;;;;;;48.33;40.67;;;;;12.34;88.49;103543.66;5003946;28;45942;-77
2021/12/16 11:26:02;;;;;;;;;43.67;36.00;;;;;12.36;88.92;103544.59;5012703;28;45544;-76
2021/12/16 11:28:28;;;;;;;;;48.67;37.33;;;;;12.38;88.64;103540.22;5012887;28;45694;-78
2021/12/16 11:31:06;;;;;;;;;47.33;35.67;;;;;12.41;88.96;103542.00;5013014;28;45549;-78
2021/12/16 11:33:38;;;;;;;;;50.33;39.00;;;;;12.25;88.23;103504.78;5012670;28;45641;-77
2021/12/16 11:36:08;;;;;;;;;49.67;39.67;;;;;12.46;88.80;103533.28;5011277;28;45548;-77
2021/12/16 11:38:42;;;;;;;;;50.33;39.00;;;;;12.48;88.54;103542.13;5009963;28;45540;-79
2021/12/16 11:41:35;;;;;;;;;48.67;39.67;;;;;12.51;88.73;103536.88;5012894;28;45451;-78
2021/12/16 11:44:13;;;;;;;;;50.67;39.67;;;;;12.54;88.62;103536.03;5006403;28;45587;-77
2021/12/16 11:46:50;;;;;;;;;56.33;44.67;;;;;12.57;88.43;103540.47;5006484;28;45548;-77
2021/12/16 11:49:42;;;;;;;;;57.67;44.00;;;;;12.58;88.43;103535.22;4996765;28;45894;-77
2021/12/16 11:52:24;;;;;;;;;55.67;41.33;;;;;12.58;88.05;103540.50;4991549;28;45434;-76
2021/12/16 11:54:53;;;;;;;;;54.00;41.33;;;;;12.57;87.89;103536.06;5012181;28;45683;-76
2021/12/16 11:57:24;;;;;;;;;54.67;40.00;;;;;12.59;87.77;103537.00;5043115;28;45506;-77
2021/12/16 12:00:07;;;;;;;;;59.00;48.33;;;;;12.59;87.85;103530.81;5054755;28;45569;-77
2021/12/16 12:02:42;;;;;;;;;45.67;38.33;;;;;12.63;87.51;103533.50;5043775;28;45964;-77
2021/12/16 12:05:24;;;;;;;;;49.00;37.33;;;;;12.53;87.20;103521.03;5051442;28;45458;-77
2021/12/16 12:08:04;;;;;;;;;48.67;39.33;;;;;12.67;87.68;103535.31;5054190;28;45577;-78
2021/12/16 12:10:38;;;;;;;;;51.00;39.33;;;;;12.70;87.12;103547.69;5036855;28;45447;-78
2021/12/16 12:13:07;;;;;;;;;51.67;37.00;;;;;12.63;86.71;103530.84;5035510;28;45487;-76
2021/12/16 12:15:51;;;;;;;;;52.00;41.00;;;;;12.62;86.56;103520.25;5048905;28;46360;-76
2021/12/16 12:18:40;;;;;;;;;54.00;42.33;;;;;12.71;86.57;103537.16;5034115;28;45538;-76
2021/12/16 12:21:27;;;;;;;;;48.67;40.00;;;;;12.73;86.13;103550.38;5046972;28;45485;-76
2021/12/16 12:24:05;;;;;;;;;46.33;38.67;;;;;12.69;86.25;103530.06;5054527;28;45474;-76
2021/12/16 12:26:34;;;;;;;;;50.00;41.33;;;;;12.80;85.74;103543.44;5054129;28;47210;-76
2021/12/16 12:29:06;;;;;;;;;51.33;38.00;;;;;12.74;86.17;103528.38;5054316;28;45466;-77
2021/12/16 12:31:34;;;;;;;;;58.00;43.00;;;;;12.81;85.80;103538.16;5054355;28;45481;-77
2021/12/16 12:34:00;;;;;;;;;55.00;43.00;;;;;12.80;86.54;103535.50;5054374;28;45426;-77
2021/12/16 12:36:26;;;;;;;;;51.33;39.00;;;;;12.77;85.67;103533.69;5053984;28;45597;-77
2021/12/16 12:38:52;;;;;;;;;54.33;40.33;;;;;12.83;85.83;103546.13;5054208;28;45417;-76
2021/12/16 12:41:18;;;;;;;;;55.67;43.33;;;;;12.70;85.27;103522.13;5054184;28;45511;-76
2021/12/16 12:43:44;;;;;;;;;52.67;38.33;;;;;12.78;85.35;103524.91;5054098;28;45522;-77
2021/12/16 12:46:13;;;;;;;;;49.00;40.33;;;;;12.83;84.59;103539.06;5053377;28;46402;-78
2021/12/16 12:48:40;;;;;;;;;49.67;40.00;;;;;12.74;85.07;103519.56;5054226;28;45431;-80
2021/12/16 12:51:07;;;;;;;;;45.67;38.00;;;;;12.88;85.63;103541.75;5053997;28;45397;-77
2021/12/16 12:53:38;;;;;;;;;47.67;40.67;;;;;12.91;84.71;103538.25;5052142;28;45570;-78
2021/12/16 12:56:27;;;;;;;;;49.67;39.00;;;;;12.88;85.20;103545.31;5053683;28;45991;-77
2021/12/16 12:59:06;;;;;;;;;48.33;37.00;;;;;12.83;84.52;103533.78;5053598;28;45713;-78
2021/12/16 13:01:36;;;;;;;;;51.67;39.00;;;;;12.89;84.30;103536.50;5052848;28;45520;-78
2021/12/16 13:04:06;;;;;;;;;44.67;37.00;;;;;12.93;84.21;103540.06;5053938;28;45805;-77
2021/12/16 13:06:47;;;;;;;;;49.67;37.33;;;;;12.89;84.00;103532.97;5053007;28;47832;-76
2021/12/16 13:09:30;;;;;;;;;60.67;43.00;;;;;12.85;84.86;103529.41;5053386;28;45547;-77
2021/12/16 13:11:56;;;;;;;;;52.00;40.33;;;;;12.92;83.89;103540.06;5053397;28;45481;-77
2021/12/16 13:14:36;;;;;;;;;48.33;40.00;;;;;12.86;84.89;103517.94;5053872;28;45416;-77
2021/12/16 13:28:35;;;;;;;;;48.33;39.00;;;;;12.91;83.12;103532.97;5053072;28;45567;-76
2021/12/16 13:31:06;;;;;;;;;41.33;36.33;;;;;12.89;83.20;103535.59;5052851;28;45443;-76
2021/12/16 13:33:43;;;;;;;;;40.33;35.00;;;;;12.85;83.32;103531.16;5052685;28;45921;-77
2021/12/16 13:36:26;;;;;;;;;36.33;32.33;;;;;12.88;83.05;103534.72;5053430;28;45583;-76
2021/12/16 13:38:52;;;;;;;;;46.67;36.67;;;;;12.89;84.10;103532.97;5053079;28;47410;-77
2021/12/16 13:41:22;;;;;;;;;41.67;33.33;;;;;12.88;83.15;103532.09;5053137;28;45487;-76
2021/12/16 13:43:57;;;;;;;;;92.00;83.00;;;;;12.79;83.55;103516.09;5053373;28;45891;-77
2021/12/16 13:46:48;;;;;;;;;38.33;34.00;;;;;12.87;84.27;103526.78;5052985;28;45475;-77
2021/12/16 14:03:25;;;;;;;;;36.67;32.33;;;;;12.84;84.25;103532.03;5052931;28;45492;-77
2021/12/16 14:06:11;;;;;;;;;38.00;31.67;;;;;12.83;84.39;103528.47;5052903;28;45477;-77
2021/12/16 14:08:52;;;;;;;;;34.33;30.33;;;;;12.80;84.32;103527.56;5053291;28;45531;-78
2021/12/16 14:14:31;;;;;;;;;38.33;33.33;;;;;12.82;84.44;103520.53;5054955;28;45538;-77
2021/12/16 14:17:11;;;;;;;;;33.67;31.00;;;;;12.69;83.72;103503.63;5056416;28;45443;-77
2021/12/16 14:31:14;;;;;;;;;44.67;35.67;;;;;12.71;84.39;103513.34;5036368;28;45448;-77
2021/12/16 14:34:37;;;;;;;;;40.00;33.67;;;;;12.72;83.11;103522.16;5035947;28;45697;-78
2021/12/16 14:43:35;;;;;;;;;42.67;36.00;;;;;12.65;83.87;103523.84;5013606;28;45594;-77
2021/12/16 14:45:31;;;;;;;;;41.00;33.00;;;;;12.66;84.18;103525.63;5005909;28;45930;-78
2021/12/16 14:50:43;;;;;;;;;35.67;31.67;;;;;12.63;84.03;103529.97;5013560;28;45493;-76
2021/12/16 14:53:25;;;;;;;;;43.33;35.67;;;;;12.63;84.39;103537.91;5026816;28;45773;-76
2021/12/16 14:55:54;;;;;;;;;41.00;34.33;;;;;12.51;84.58;103514.84;5032797;28;45525;-76
2021/12/16 14:58:23;;;;;;;;;42.67;37.33;;;;;12.56;85.16;103528.13;5032706;28;45382;-75